createdAt,value
2018-10-16T00:02:25.121Z,71.73
2018-10-16T00:07:27.285Z,71.19
2018-10-16T00:12:29.425Z,71.74
2018-10-16T00:17:31.543Z,72.41
2018-10-16T00:22:33.691Z,72.06
2018-10-16T00:27:35.836Z,71.92
2018-10-16T00:32:38.377Z,72.20
2018-10-16T00:37:40.468Z,72.28
2018-10-16T00:42:42.590Z,72.45
2018-10-16T00:47:44.741Z,72.40
2018-10-16T00:52:46.881Z,72.46
2018-10-16T00:57:49.024Z,72.42
2018-10-16T01:02:51.872Z,72.58
2018-10-16T01:07:54.008Z,72.93
2018-10-16T01:12:56.214Z,72.42
2018-10-16T01:17:58.342Z,73.48
2018-10-16T01:23:00.474Z,73.39
2018-10-16T01:28:02.645Z,73.16
2018-10-16T01:33:04.803Z,73.70
2018-10-16T01:38:06.906Z,73.91
2018-10-16T01:43:09.022Z,73.44
2018-10-16T01:48:11.188Z,73.85
2018-10-16T01:53:13.311Z,73.78
2018-10-16T01:58:15.450Z,74.07
2018-10-16T02:03:17.574Z,73.64
2018-10-16T02:08:19.704Z,74.08
2018-10-16T02:13:21.847Z,74.42
2018-10-16T02:18:24.002Z,74.42
2018-10-16T02:23:26.115Z,74.25
2018-10-16T02:28:28.231Z,74.41
2018-10-16T02:33:30.333Z,74.27
2018-10-16T02:38:32.433Z,73.89
2018-10-16T02:43:34.526Z,74.30
2018-10-16T02:48:37.355Z,74.25
2018-10-16T02:53:39.577Z,74.96
2018-10-16T02:58:41.686Z,75.13
2018-10-16T03:03:43.821Z,74.72
2018-10-16T03:08:45.935Z,75.10
2018-10-16T03:13:48.082Z,74.75
2018-10-16T03:18:50.247Z,75.20
2018-10-16T03:23:52.366Z,74.63
2018-10-16T03:28:54.488Z,74.99
2018-10-16T03:33:56.648Z,74.96
2018-10-16T03:38:58.746Z,75.37
2018-10-16T03:44:01.700Z,74.57
2018-10-16T03:49:04.186Z,74.41
2018-10-16T03:54:06.675Z,75.49
2018-10-16T03:59:08.806Z,76.12
2018-10-16T04:04:10.921Z,76.62
2018-10-16T04:09:13.036Z,76.71
2018-10-16T04:14:15.186Z,76.63
2018-10-16T04:19:17.307Z,76.52
2018-10-16T04:24:19.415Z,76.32
2018-10-16T04:29:21.656Z,75.80
2018-10-16T04:34:23.674Z,76.47
2018-10-16T04:39:25.826Z,76.59
2018-10-16T04:44:27.930Z,76.41
2018-10-16T04:49:30.079Z,76.59
2018-10-16T04:54:32.206Z,76.45
2018-10-16T04:59:34.369Z,77.21
2018-10-16T05:04:36.541Z,77.81
2018-10-16T05:09:38.668Z,77.98
2018-10-16T05:14:40.790Z,78.19
2018-10-16T05:19:42.930Z,78.39
2018-10-16T05:24:45.071Z,78.23
2018-10-16T05:29:47.225Z,77.54
2018-10-16T05:34:49.351Z,77.71
2018-10-16T05:39:51.462Z,77.57
2018-10-16T05:44:53.643Z,78.30
2018-10-16T05:49:55.803Z,78.29
2018-10-16T05:54:57.992Z,78.84
2018-10-16T06:00:11.989Z,79.63
2018-10-16T06:05:14.148Z,79.03
2018-10-16T06:10:16.286Z,79.17
2018-10-16T06:15:18.462Z,78.72
2018-10-16T06:20:20.574Z,78.98
2018-10-16T06:25:22.755Z,78.63
2018-10-16T06:30:25.043Z,79.79
2018-10-16T06:35:27.049Z,79.14
2018-10-16T06:40:29.264Z,79.01
2018-10-16T06:45:31.354Z,78.88
2018-10-16T06:50:33.538Z,79.79
2018-10-16T06:55:35.723Z,79.52
2018-10-16T07:00:37.901Z,78.71
2018-10-16T07:05:40.026Z,78.63
2018-10-16T07:10:42.185Z,78.99
2018-10-16T07:15:44.301Z,78.87
2018-10-16T07:20:46.449Z,78.97
2018-10-16T07:25:48.581Z,78.58
2018-10-16T07:30:50.733Z,79.40
2018-10-16T07:35:52.830Z,79.56
2018-10-16T07:40:54.965Z,79.61
2018-10-16T07:45:57.129Z,78.96
2018-10-16T07:50:59.266Z,79.47
2018-10-16T07:56:01.421Z,78.85
2018-10-16T08:01:03.616Z,78.37
2018-10-16T08:06:06.117Z,79.54
2018-10-16T08:11:08.290Z,78.94
2018-10-16T08:16:10.444Z,79.27
2018-10-16T08:21:12.567Z,78.13
2018-10-16T08:26:14.733Z,78.49
2018-10-16T08:31:16.871Z,78.15
2018-10-16T08:36:19.132Z,77.29
2018-10-16T08:41:25.186Z,77.26
2018-10-16T08:46:38.771Z,77.78
2018-10-16T08:51:49.474Z,75.21
2018-10-16T08:56:51.635Z,76.16
2018-10-16T09:01:53.782Z,75.10
2018-10-16T09:06:55.980Z,74.51
2018-10-16T09:11:58.122Z,73.99
2018-10-16T09:17:00.282Z,73.67
2018-10-16T09:22:02.431Z,73.76
2018-10-16T09:27:04.807Z,72.65
2018-10-16T09:32:06.988Z,72.16
2018-10-16T09:37:09.094Z,71.77
2018-10-16T09:42:11.273Z,71.87
2018-10-16T09:47:13.434Z,70.45
2018-10-16T09:52:15.623Z,71.31
2018-10-16T09:57:17.813Z,69.76
2018-10-16T10:02:19.988Z,70.07
2018-10-16T10:07:22.149Z,67.42
2018-10-16T10:12:24.295Z,68.21
2018-10-16T10:17:26.414Z,67.82
2018-10-16T10:22:28.618Z,66.06
2018-10-16T10:27:31.196Z,65.48
2018-10-16T10:32:33.347Z,65.33
2018-10-16T10:37:35.475Z,66.88
2018-10-16T10:42:37.611Z,67.54
2018-10-16T10:47:39.779Z,68.20
2018-10-16T10:52:41.951Z,69.23
2018-10-16T10:57:44.211Z,69.21
2018-10-16T11:02:47.584Z,69.79
2018-10-16T11:07:49.730Z,69.96
2018-10-16T11:12:51.851Z,69.31
2018-10-16T11:17:54.847Z,70.12
2018-10-16T11:22:57.000Z,70.06
2018-10-16T11:27:59.339Z,69.80
2018-10-16T11:33:01.526Z,71.46
2018-10-16T11:38:03.751Z,70.68
2018-10-16T11:43:05.889Z,71.39
2018-10-16T11:48:08.120Z,71.84
2018-10-16T11:53:10.353Z,72.59
2018-10-16T11:58:12.511Z,72.05
2018-10-16T12:03:14.700Z,72.26
2018-10-16T12:08:16.882Z,71.85
2018-10-16T12:13:19.016Z,72.80
2018-10-16T12:19:24.082Z,73.07
2018-10-16T12:24:26.228Z,72.87
2018-10-16T12:29:28.402Z,73.41
2018-10-16T12:34:30.535Z,73.67
2018-10-16T12:39:32.697Z,73.18
2018-10-16T12:44:34.824Z,74.00
2018-10-16T12:49:36.955Z,73.49
2018-10-16T12:54:39.143Z,72.50
2018-10-16T12:59:41.343Z,72.52
2018-10-16T13:04:43.475Z,72.70
2018-10-16T13:09:45.655Z,72.57
2018-10-16T13:14:47.800Z,73.65
2018-10-16T13:19:49.921Z,72.73
2018-10-16T13:24:52.047Z,74.47
2018-10-16T13:29:54.218Z,74.04
2018-10-16T13:34:56.381Z,73.29
2018-10-16T13:39:58.596Z,73.38
2018-10-16T13:45:01.061Z,71.07
2018-10-16T13:50:04.184Z,67.76
2018-10-16T13:55:07.092Z,67.77
2018-10-16T14:00:20.267Z,70.19
2018-10-16T14:05:22.433Z,71.10
2018-10-16T14:10:24.592Z,72.31
2018-10-16T14:15:26.748Z,73.44
2018-10-16T14:20:28.912Z,74.98
2018-10-16T14:25:31.113Z,75.02
2018-10-16T14:30:33.629Z,75.10
2018-10-16T14:35:35.759Z,75.79
2018-10-16T14:40:38.005Z,76.43
2018-10-16T14:45:40.099Z,77.03
2018-10-16T14:50:42.237Z,77.83
2018-10-16T14:55:44.456Z,77.83
2018-10-16T15:00:46.628Z,77.65
2018-10-16T15:05:48.807Z,79.04
2018-10-16T15:10:51.010Z,79.26
2018-10-16T15:15:53.189Z,79.11
2018-10-16T15:20:55.319Z,79.47
2018-10-16T15:25:57.518Z,79.24
2018-10-16T15:30:59.712Z,79.58
2018-10-16T15:36:01.893Z,79.92
2018-10-16T15:41:04.355Z,79.95
2018-10-16T15:46:06.554Z,80.14
2018-10-16T15:51:08.751Z,80.61
2018-10-16T15:56:11.058Z,81.34
2018-10-16T16:01:13.097Z,81.28
2018-10-16T16:06:15.279Z,80.77
2018-10-16T16:11:17.478Z,81.15
2018-10-16T16:16:19.608Z,81.28
2018-10-16T16:21:21.809Z,81.66
2018-10-16T16:26:24.042Z,81.49
2018-10-16T16:31:26.169Z,81.42
2018-10-16T16:36:28.378Z,81.82
2018-10-16T16:41:30.480Z,81.83
2018-10-16T16:46:32.656Z,83.19
2018-10-16T16:51:34.832Z,82.18
2018-10-16T16:56:37.015Z,82.63
2018-10-16T17:01:39.224Z,84.44
2018-10-16T17:06:41.409Z,83.36
2018-10-16T17:11:43.628Z,83.16
2018-10-16T17:16:45.795Z,83.08
2018-10-16T17:21:47.945Z,83.41
2018-10-16T17:26:50.177Z,84.28
2018-10-16T17:31:52.280Z,83.83
2018-10-16T17:36:54.493Z,83.42
2018-10-16T17:41:56.714Z,83.30
2018-10-16T17:46:58.960Z,83.26
2018-10-16T17:52:01.351Z,84.29
2018-10-16T17:57:03.757Z,85.51
2018-10-16T18:02:05.996Z,84.76
2018-10-16T18:07:08.205Z,84.91
2018-10-16T18:12:10.440Z,84.52
2018-10-16T18:17:12.651Z,83.87
2018-10-16T18:22:14.862Z,83.85
2018-10-16T18:27:17.053Z,84.81
2018-10-16T18:32:19.446Z,84.83
2018-10-16T18:37:21.674Z,84.38
2018-10-16T18:42:23.918Z,83.76
2018-10-16T18:47:26.206Z,84.30
2018-10-16T18:52:28.513Z,84.74
2018-10-16T18:57:31.491Z,84.28
2018-10-16T19:02:33.941Z,84.72
2018-10-16T19:07:37.042Z,84.72
2018-10-16T19:12:42.091Z,85.46
2018-10-16T19:17:46.430Z,84.71
2018-10-16T19:22:49.840Z,85.24
2018-10-16T19:27:52.582Z,85.03
2018-10-16T19:32:55.201Z,85.01
2018-10-16T19:37:57.811Z,85.23
2018-10-16T19:43:01.063Z,85.71
2018-10-16T19:48:05.333Z,85.53
2018-10-16T19:53:07.950Z,85.71
2018-10-16T19:58:10.565Z,85.22
2018-10-16T20:03:12.967Z,86.01
2018-10-16T20:08:15.481Z,85.74
2018-10-16T20:13:17.707Z,86.39
2018-10-16T20:18:20.300Z,85.74
2018-10-16T20:23:22.521Z,86.09
2018-10-16T20:28:24.675Z,85.98
2018-10-16T20:33:26.860Z,86.65
2018-10-16T20:38:29.030Z,85.93
2018-10-16T20:43:31.405Z,85.66
2018-10-16T20:48:33.657Z,85.33
2018-10-16T20:53:35.839Z,86.29
2018-10-16T20:58:38.021Z,86.27
2018-10-16T21:03:40.164Z,85.80
2018-10-16T21:08:42.317Z,85.75
2018-10-16T21:13:44.469Z,86.29
2018-10-16T21:18:46.632Z,86.35
2018-10-16T21:23:48.761Z,86.35
2018-10-16T21:28:50.881Z,86.62
2018-10-16T21:33:53.082Z,87.51
2018-10-16T21:38:55.189Z,86.46
2018-10-16T21:43:57.333Z,86.66
2018-10-16T21:48:59.544Z,86.46
2018-10-16T21:54:01.651Z,87.08
2018-10-16T21:59:04.796Z,86.35
2018-10-16T22:04:06.986Z,85.50
2018-10-16T22:09:11.667Z,85.69
2018-10-16T22:14:13.881Z,85.21
2018-10-16T22:19:16.333Z,85.02
2018-10-16T22:24:18.431Z,85.22
2018-10-16T22:29:20.615Z,85.00
2018-10-16T22:34:22.731Z,85.10
2018-10-16T22:39:24.897Z,85.07
2018-10-16T22:44:27.063Z,84.47
2018-10-16T22:49:29.215Z,84.68
2018-10-16T22:54:31.341Z,85.14
2018-10-16T22:59:33.542Z,85.31
2018-10-16T23:04:36.050Z,84.99
2018-10-16T23:09:38.242Z,84.68
2018-10-16T23:14:40.360Z,85.09
2018-10-16T23:19:42.881Z,86.06
2018-10-16T23:24:45.011Z,84.98
2018-10-16T23:29:47.118Z,84.69
2018-10-16T23:34:49.288Z,85.30
2018-10-16T23:39:51.436Z,84.99
2018-10-16T23:44:53.586Z,84.99
2018-10-16T23:49:55.705Z,85.71
2018-10-16T23:54:57.854Z,85.27
2018-10-16T23:59:59.994Z,85.42
